createdAt,value
2023-04-20T00:07:59.078Z,29.58
2023-04-20T00:18:01.636Z,32.21
2023-04-20T00:28:03.739Z,30.73
2023-04-20T00:38:05.893Z,29.14
2023-04-20T00:48:07.926Z,29.86
2023-04-20T00:58:11.529Z,29.59
2023-04-20T01:08:13.589Z,29.23
2023-04-20T01:18:18.920Z,29.09
2023-04-20T01:28:21.148Z,29.06
2023-04-20T01:38:23.923Z,29.36
2023-04-20T01:48:26.028Z,30.30
2023-04-20T01:58:29.191Z,30.72
2023-04-20T02:08:31.360Z,31.00
2023-04-20T02:18:33.568Z,31.65
2023-04-20T02:28:36.014Z,32.78
2023-04-20T02:38:40.153Z,34.16
2023-04-20T02:48:42.919Z,35.51
2023-04-20T02:58:48.188Z,36.66
2023-04-20T03:09:10.544Z,38.54
2023-04-20T03:19:28.178Z,39.12
2023-04-20T03:29:30.736Z,40.78
2023-04-20T03:39:33.449Z,40.77
2023-04-20T03:49:35.945Z,43.67
2023-04-20T03:59:38.422Z,44.14
2023-04-20T04:09:42.123Z,43.84
2023-04-20T04:19:45.025Z,44.00
2023-04-20T04:29:47.218Z,43.79
2023-04-20T04:39:53.898Z,43.28
2023-04-20T04:50:05.760Z,43.93
2023-04-20T05:00:12.475Z,43.48
2023-04-20T05:10:15.347Z,45.28
2023-04-20T05:20:18.131Z,44.49
2023-04-20T05:30:21.906Z,47.73
2023-04-20T05:40:24.510Z,53.00
2023-04-20T05:50:27.196Z,53.69
2023-04-20T06:00:29.336Z,54.37
2023-04-20T06:10:34.079Z,56.87
2023-04-20T06:20:36.422Z,56.45
2023-04-20T06:30:38.649Z,56.70
2023-04-20T06:40:41.110Z,55.65
2023-04-20T06:50:43.316Z,56.10
2023-04-20T07:00:45.718Z,53.20
2023-04-20T07:10:47.958Z,55.88
2023-04-20T07:20:50.224Z,54.42
2023-04-20T07:30:52.308Z,53.95
2023-04-20T07:40:54.598Z,53.62
2023-04-20T07:50:56.719Z,51.56
2023-04-20T08:00:59.890Z,53.78
2023-04-20T08:11:02.054Z,53.69
2023-04-20T08:21:04.745Z,52.33
2023-04-20T08:31:06.959Z,57.70
2023-04-20T08:41:09.152Z,56.03
2023-04-20T08:51:12.098Z,57.68
2023-04-20T09:01:17.731Z,58.22
2023-04-20T09:11:23.118Z,55.26
2023-04-20T09:21:28.067Z,55.95
2023-04-20T09:31:30.394Z,55.35
2023-04-20T09:41:33.580Z,56.03
2023-04-20T09:51:37.644Z,58.27
2023-04-20T10:01:40.288Z,56.71
2023-04-20T10:11:52.407Z,54.07
2023-04-20T10:21:56.649Z,52.35
2023-04-20T10:31:58.981Z,49.75
2023-04-20T10:42:03.706Z,49.97
2023-04-20T10:52:05.878Z,51.49
2023-04-20T11:02:08.425Z,47.04
2023-04-20T11:12:15.710Z,48.70
2023-04-20T11:23:16.853Z,46.38
2023-04-20T11:33:28.644Z,42.48
2023-04-20T11:43:32.440Z,44.30
2023-04-20T11:53:34.875Z,42.81
2023-04-20T12:03:37.307Z,42.72
2023-04-20T12:13:39.659Z,41.74
2023-04-20T12:23:42.760Z,40.56
2023-04-20T12:33:44.833Z,39.11
2023-04-20T12:43:46.995Z,40.11
2023-04-20T12:53:49.182Z,38.68
2023-04-20T13:03:52.756Z,37.12
2023-04-20T13:13:56.490Z,37.15
2023-04-20T13:23:58.649Z,40.71
2023-04-20T13:34:01.244Z,38.68
2023-04-20T13:44:04.739Z,36.58
2023-04-20T13:54:08.392Z,36.68
2023-04-20T14:04:10.932Z,36.30
2023-04-20T14:14:13.308Z,37.54
2023-04-20T14:24:15.609Z,35.16
2023-04-20T14:34:18.114Z,34.55
2023-04-20T14:44:20.666Z,34.11
2023-04-20T14:54:22.897Z,34.05
2023-04-20T15:04:25.322Z,33.29
2023-04-20T15:14:28.174Z,32.71
2023-04-20T15:24:30.513Z,35.55
2023-04-20T15:34:32.620Z,33.09
2023-04-20T15:44:34.816Z,33.25
2023-04-20T15:54:37.239Z,34.21
2023-04-20T16:04:39.389Z,35.11
2023-04-20T16:14:41.687Z,35.33
2023-04-20T16:24:43.815Z,37.13
2023-04-20T16:34:45.925Z,36.17
2023-04-20T16:44:48.000Z,36.26
2023-04-20T16:54:50.121Z,41.37
2023-04-20T17:04:52.233Z,43.07
2023-04-20T17:14:55.203Z,44.81
2023-04-20T17:24:57.599Z,48.24
2023-04-20T17:34:59.864Z,48.90
2023-04-20T17:45:01.906Z,51.21
2023-04-20T17:55:04.236Z,52.57
2023-04-20T18:05:06.833Z,51.93
2023-04-20T18:15:09.447Z,51.33
2023-04-20T18:25:11.524Z,52.56
2023-04-20T18:35:13.681Z,54.28
2023-04-20T18:45:16.040Z,54.36
2023-04-20T18:55:18.117Z,52.03
2023-04-20T19:05:20.245Z,53.31
2023-04-20T19:15:25.599Z,50.61
2023-04-20T19:25:27.927Z,51.56
2023-04-20T19:35:30.184Z,52.79
2023-04-20T19:45:32.250Z,50.48
2023-04-20T19:55:34.414Z,51.52
2023-04-20T20:05:36.455Z,51.50
2023-04-20T20:15:38.718Z,51.16
2023-04-20T20:25:40.944Z,49.91
2023-04-20T20:35:43.055Z,52.04
2023-04-20T20:45:45.280Z,52.59
2023-04-20T20:55:47.455Z,50.29
2023-04-20T21:05:49.681Z,48.33
2023-04-20T21:15:51.788Z,50.65
2023-04-20T21:25:54.071Z,52.00
2023-04-20T21:35:58.365Z,49.05
2023-04-20T21:46:01.116Z,49.49
2023-04-20T21:56:03.305Z,50.15
2023-04-20T22:06:06.376Z,49.37
2023-04-20T22:16:08.479Z,50.54
2023-04-20T22:26:10.610Z,50.33
2023-04-20T22:36:13.133Z,52.29
2023-04-20T22:46:15.309Z,53.98
2023-04-20T22:56:17.618Z,55.11
2023-04-20T23:06:21.800Z,57.95
2023-04-20T23:16:23.987Z,57.20
2023-04-20T23:26:26.082Z,59.46
2023-04-20T23:36:28.136Z,58.33
2023-04-20T23:46:30.413Z,59.24
2023-04-20T23:56:32.529Z,57.57
